sensor_id;sensor_type;location;lat;lon;timestamp;P1;durP1;ratioP1;P2;durP2;ratioP2
22995;SDS011;11664;49.774;8.650;2022-10-30T00:00:26;8.38;;;6.20;;
22995;SDS011;11664;49.774;8.650;2022-10-30T00:02:52;8.00;;;6.25;;
22995;SDS011;11664;49.774;8.650;2022-10-30T00:05:18;7.70;;;6.90;;
22995;SDS011;11664;49.774;8.650;2022-10-30T00:07:45;12.52;;;8.05;;
22995;SDS011;11664;49.774;8.650;2022-10-30T00:10:11;8.48;;;7.72;;
22995;SDS011;11664;49.774;8.650;2022-10-30T00:12:37;9.68;;;8.88;;
22995;SDS011;11664;49.774;8.650;2022-10-30T00:15:03;11.02;;;7.28;;
22995;SDS011;11664;49.774;8.650;2022-10-30T00:17:29;7.10;;;6.60;;
22995;SDS011;11664;49.774;8.650;2022-10-30T00:19:55;10.70;;;9.60;;
22995;SDS011;11664;49.774;8.650;2022-10-30T00:22:21;11.65;;;10.25;;
22995;SDS011;11664;49.774;8.650;2022-10-30T00:24:47;14.18;;;10.27;;
22995;SDS011;11664;49.774;8.650;2022-10-30T00:27:13;12.90;;;11.77;;
22995;SDS011;11664;49.774;8.650;2022-10-30T00:29:39;14.20;;;12.93;;
22995;SDS011;11664;49.774;8.650;2022-10-30T00:32:05;11.00;;;10.18;;
22995;SDS011;11664;49.774;8.650;2022-10-30T00:34:31;24.40;;;22.38;;
22995;SDS011;11664;49.774;8.650;2022-10-30T00:36:57;20.20;;;18.85;;
22995;SDS011;11664;49.774;8.650;2022-10-30T00:39:23;21.30;;;19.90;;
22995;SDS011;11664;49.774;8.650;2022-10-30T00:41:49;14.43;;;13.25;;
22995;SDS011;11664;49.774;8.650;2022-10-30T00:44:31;10.23;;;9.30;;
22995;SDS011;11664;49.774;8.650;2022-10-30T00:47:00;9.40;;;8.60;;
22995;SDS011;11664;49.774;8.650;2022-10-30T00:49:30;13.93;;;12.52;;
22995;SDS011;11664;49.774;8.650;2022-10-30T00:51:58;18.05;;;16.40;;
22995;SDS011;11664;49.774;8.650;2022-10-30T00:54:25;10.35;;;9.45;;
22995;SDS011;11664;49.774;8.650;2022-10-30T00:56:51;16.30;;;15.23;;
22995;SDS011;11664;49.774;8.650;2022-10-30T00:59:21;15.07;;;13.73;;
22995;SDS011;11664;49.774;8.650;2022-10-30T01:01:47;24.73;;;22.90;;
22995;SDS011;11664;49.774;8.650;2022-10-30T01:04:14;18.55;;;16.77;;
22995;SDS011;11664;49.774;8.650;2022-10-30T01:06:42;22.02;;;20.52;;
22995;SDS011;11664;49.774;8.650;2022-10-30T01:09:12;17.60;;;16.27;;
22995;SDS011;11664;49.774;8.650;2022-10-30T01:11:38;13.27;;;12.07;;
22995;SDS011;11664;49.774;8.650;2022-10-30T01:14:05;11.48;;;10.68;;
22995;SDS011;11664;49.774;8.650;2022-10-30T01:19:39;21.55;;;20.05;;
22995;SDS011;11664;49.774;8.650;2022-10-30T01:22:06;18.75;;;15.02;;
22995;SDS011;11664;49.774;8.650;2022-10-30T01:24:39;15.68;;;14.25;;
22995;SDS011;11664;49.774;8.650;2022-10-30T01:29:44;9.98;;;8.63;;
22995;SDS011;11664;49.774;8.650;2022-10-30T01:35:23;13.45;;;7.63;;
22995;SDS011;11664;49.774;8.650;2022-10-30T01:37:54;10.55;;;9.73;;
22995;SDS011;11664;49.774;8.650;2022-10-30T01:40:22;10.73;;;9.73;;
22995;SDS011;11664;49.774;8.650;2022-10-30T01:45:17;19.80;;;18.45;;
22995;SDS011;11664;49.774;8.650;2022-10-30T01:53:05;11.45;;;10.48;;
22995;SDS011;11664;49.774;8.650;2022-10-30T01:55:35;26.10;;;11.10;;
22995;SDS011;11664;49.774;8.650;2022-10-30T01:58:24;10.68;;;9.70;;
22995;SDS011;11664;49.774;8.650;2022-10-30T02:00:52;13.15;;;11.60;;
22995;SDS011;11664;49.774;8.650;2022-10-30T02:03:20;13.55;;;9.35;;
22995;SDS011;11664;49.774;8.650;2022-10-30T02:05:48;10.90;;;10.00;;
22995;SDS011;11664;49.774;8.650;2022-10-30T02:08:14;13.73;;;12.52;;
22995;SDS011;11664;49.774;8.650;2022-10-30T02:10:41;12.93;;;11.88;;
22995;SDS011;11664;49.774;8.650;2022-10-30T02:13:07;16.20;;;14.55;;
22995;SDS011;11664;49.774;8.650;2022-10-30T02:15:34;12.93;;;12.05;;
22995;SDS011;11664;49.774;8.650;2022-10-30T02:18:00;13.52;;;8.65;;
22995;SDS011;11664;49.774;8.650;2022-10-30T02:20:26;9.82;;;9.02;;
22995;SDS011;11664;49.774;8.650;2022-10-30T02:22:52;12.10;;;10.98;;
22995;SDS011;11664;49.774;8.650;2022-10-30T02:25:18;9.48;;;7.35;;
22995;SDS011;11664;49.774;8.650;2022-10-30T02:27:44;13.95;;;12.57;;
22995;SDS011;11664;49.774;8.650;2022-10-30T02:30:11;13.77;;;12.73;;
22995;SDS011;11664;49.774;8.650;2022-10-30T02:32:37;13.98;;;12.73;;
22995;SDS011;11664;49.774;8.650;2022-10-30T02:35:03;12.15;;;11.10;;
22995;SDS011;11664;49.774;8.650;2022-10-30T02:37:29;15.40;;;14.15;;
22995;SDS011;11664;49.774;8.650;2022-10-30T02:40:00;10.77;;;9.30;;
22995;SDS011;11664;49.774;8.650;2022-10-30T02:42:26;9.52;;;8.48;;
22995;SDS011;11664;49.774;8.650;2022-10-30T02:44:52;8.90;;;7.07;;
22995;SDS011;11664;49.774;8.650;2022-10-30T02:47:18;8.35;;;7.32;;
22995;SDS011;11664;49.774;8.650;2022-10-30T02:49:44;8.43;;;7.70;;
22995;SDS011;11664;49.774;8.650;2022-10-30T02:52:10;11.10;;;9.90;;
22995;SDS011;11664;49.774;8.650;2022-10-30T02:54:36;13.15;;;12.07;;
22995;SDS011;11664;49.774;8.650;2022-10-30T02:57:02;14.02;;;12.90;;
22995;SDS011;11664;49.774;8.650;2022-10-30T02:59:28;9.13;;;8.20;;
22995;SDS011;11664;49.774;8.650;2022-10-30T03:01:54;8.00;;;6.85;;
22995;SDS011;11664;49.774;8.650;2022-10-30T03:04:20;10.82;;;9.00;;
22995;SDS011;11664;49.774;8.650;2022-10-30T03:06:46;17.13;;;15.88;;
22995;SDS011;11664;49.774;8.650;2022-10-30T03:09:12;26.05;;;24.30;;
22995;SDS011;11664;49.774;8.650;2022-10-30T03:11:38;16.23;;;15.13;;
22995;SDS011;11664;49.774;8.650;2022-10-30T03:14:04;10.35;;;9.63;;
22995;SDS011;11664;49.774;8.650;2022-10-30T03:16:30;11.95;;;10.73;;
22995;SDS011;11664;49.774;8.650;2022-10-30T03:18:58;9.52;;;8.65;;
22995;SDS011;11664;49.774;8.650;2022-10-30T03:21:25;16.02;;;13.50;;
22995;SDS011;11664;49.774;8.650;2022-10-30T03:23:51;20.92;;;19.38;;
22995;SDS011;11664;49.774;8.650;2022-10-30T03:26:18;11.48;;;10.55;;
22995;SDS011;11664;49.774;8.650;2022-10-30T03:28:44;8.77;;;7.97;;
22995;SDS011;11664;49.774;8.650;2022-10-30T03:31:11;11.30;;;7.55;;
22995;SDS011;11664;49.774;8.650;2022-10-30T03:33:37;12.10;;;9.98;;
22995;SDS011;11664;49.774;8.650;2022-10-30T03:36:04;17.00;;;8.13;;
22995;SDS011;11664;49.774;8.650;2022-10-30T03:38:31;13.43;;;10.40;;
22995;SDS011;11664;49.774;8.650;2022-10-30T03:40:57;10.73;;;8.60;;
22995;SDS011;11664;49.774;8.650;2022-10-30T03:43:23;9.48;;;8.57;;
22995;SDS011;11664;49.774;8.650;2022-10-30T03:45:51;10.45;;;9.57;;
22995;SDS011;11664;49.774;8.650;2022-10-30T03:48:17;12.15;;;9.40;;
22995;SDS011;11664;49.774;8.650;2022-10-30T03:50:44;16.73;;;7.82;;
22995;SDS011;11664;49.774;8.650;2022-10-30T03:53:10;11.45;;;7.72;;
22995;SDS011;11664;49.774;8.650;2022-10-30T03:55:36;16.00;;;8.05;;
22995;SDS011;11664;49.774;8.650;2022-10-30T03:58:03;11.70;;;10.80;;
22995;SDS011;11664;49.774;8.650;2022-10-30T04:00:29;30.92;;;28.90;;
22995;SDS011;11664;49.774;8.650;2022-10-30T04:02:56;21.55;;;20.05;;
22995;SDS011;11664;49.774;8.650;2022-10-30T04:05:22;15.27;;;14.13;;
22995;SDS011;11664;49.774;8.650;2022-10-30T04:07:53;11.00;;;10.00;;
22995;SDS011;11664;49.774;8.650;2022-10-30T04:10:19;26.48;;;24.20;;
22995;SDS011;11664;49.774;8.650;2022-10-30T04:12:45;27.05;;;24.88;;
22995;SDS011;11664;49.774;8.650;2022-10-30T04:15:12;14.55;;;13.38;;
22995;SDS011;11664;49.774;8.650;2022-10-30T04:17:38;9.40;;;8.40;;
22995;SDS011;11664;49.774;8.650;2022-10-30T04:20:04;10.55;;;7.95;;
22995;SDS011;11664;49.774;8.650;2022-10-30T04:22:30;9.80;;;6.35;;
22995;SDS011;11664;49.774;8.650;2022-10-30T04:24:56;8.75;;;8.05;;
22995;SDS011;11664;49.774;8.650;2022-10-30T04:27:22;8.18;;;6.45;;
22995;SDS011;11664;49.774;8.650;2022-10-30T04:29:48;6.95;;;6.32;;
22995;SDS011;11664;49.774;8.650;2022-10-30T04:32:14;6.90;;;6.20;;
22995;SDS011;11664;49.774;8.650;2022-10-30T04:34:40;8.98;;;5.50;;
22995;SDS011;11664;49.774;8.650;2022-10-30T04:37:06;10.32;;;7.95;;
22995;SDS011;11664;49.774;8.650;2022-10-30T04:39:33;9.15;;;6.22;;
22995;SDS011;11664;49.774;8.650;2022-10-30T04:41:59;7.63;;;6.53;;
22995;SDS011;11664;49.774;8.650;2022-10-30T04:44:25;10.75;;;9.93;;
22995;SDS011;11664;49.774;8.650;2022-10-30T04:46:51;9.63;;;7.97;;
22995;SDS011;11664;49.774;8.650;2022-10-30T04:49:17;8.63;;;6.55;;
22995;SDS011;11664;49.774;8.650;2022-10-30T04:51:43;12.02;;;7.32;;
22995;SDS011;11664;49.774;8.650;2022-10-30T04:54:11;9.50;;;8.80;;
22995;SDS011;11664;49.774;8.650;2022-10-30T04:56:37;11.73;;;10.65;;
22995;SDS011;11664;49.774;8.650;2022-10-30T04:59:03;13.55;;;12.57;;
22995;SDS011;11664;49.774;8.650;2022-10-30T05:01:29;17.30;;;16.08;;
22995;SDS011;11664;49.774;8.650;2022-10-30T05:03:55;15.45;;;14.18;;
22995;SDS011;11664;49.774;8.650;2022-10-30T05:06:26;13.23;;;12.20;;
22995;SDS011;11664;49.774;8.650;2022-10-30T05:08:54;10.02;;;9.13;;
22995;SDS011;11664;49.774;8.650;2022-10-30T05:11:20;7.68;;;7.00;;
22995;SDS011;11664;49.774;8.650;2022-10-30T05:13:47;10.48;;;6.20;;
22995;SDS011;11664;49.774;8.650;2022-10-30T05:16:13;7.60;;;6.90;;
22995;SDS011;11664;49.774;8.650;2022-10-30T05:18:39;9.57;;;6.05;;
22995;SDS011;11664;49.774;8.650;2022-10-30T05:21:05;11.57;;;6.25;;
22995;SDS011;11664;49.774;8.650;2022-10-30T05:23:31;8.15;;;5.75;;
22995;SDS011;11664;49.774;8.650;2022-10-30T05:26:00;10.95;;;6.82;;
22995;SDS011;11664;49.774;8.650;2022-10-30T05:28:26;6.90;;;6.30;;
22995;SDS011;11664;49.774;8.650;2022-10-30T05:30:52;9.27;;;7.45;;
22995;SDS011;11664;49.774;8.650;2022-10-30T05:33:18;11.27;;;10.27;;
22995;SDS011;11664;49.774;8.650;2022-10-30T05:35:45;9.93;;;8.93;;
22995;SDS011;11664;49.774;8.650;2022-10-30T05:38:11;11.95;;;7.72;;
22995;SDS011;11664;49.774;8.650;2022-10-30T05:40:37;15.48;;;7.47;;
22995;SDS011;11664;49.774;8.650;2022-10-30T05:43:03;8.80;;;6.03;;
22995;SDS011;11664;49.774;8.650;2022-10-30T05:45:30;8.48;;;6.40;;
22995;SDS011;11664;49.774;8.650;2022-10-30T05:48:00;10.30;;;9.05;;
22995;SDS011;11664;49.774;8.650;2022-10-30T05:50:27;12.45;;;11.15;;
22995;SDS011;11664;49.774;8.650;2022-10-30T05:52:56;10.57;;;9.27;;
22995;SDS011;11664;49.774;8.650;2022-10-30T05:55:23;14.98;;;13.70;;
22995;SDS011;11664;49.774;8.650;2022-10-30T05:57:49;23.05;;;21.45;;
22995;SDS011;11664;49.774;8.650;2022-10-30T06:00:15;23.08;;;21.52;;
22995;SDS011;11664;49.774;8.650;2022-10-30T06:02:41;43.00;;;40.05;;
22995;SDS011;11664;49.774;8.650;2022-10-30T06:05:07;34.00;;;32.00;;
22995;SDS011;11664;49.774;8.650;2022-10-30T06:07:33;23.35;;;21.92;;
22995;SDS011;11664;49.774;8.650;2022-10-30T06:09:59;27.55;;;25.70;;
22995;SDS011;11664;49.774;8.650;2022-10-30T06:12:25;12.85;;;11.85;;
22995;SDS011;11664;49.774;8.650;2022-10-30T06:14:51;15.95;;;14.77;;
22995;SDS011;11664;49.774;8.650;2022-10-30T06:17:17;16.38;;;15.18;;
22995;SDS011;11664;49.774;8.650;2022-10-30T06:19:43;12.63;;;11.55;;
22995;SDS011;11664;49.774;8.650;2022-10-30T06:22:09;13.18;;;11.95;;
22995;SDS011;11664;49.774;8.650;2022-10-30T06:24:35;18.75;;;17.30;;
22995;SDS011;11664;49.774;8.650;2022-10-30T06:27:01;28.13;;;26.17;;
22995;SDS011;11664;49.774;8.650;2022-10-30T06:29:27;23.65;;;22.02;;
22995;SDS011;11664;49.774;8.650;2022-10-30T06:31:53;15.23;;;14.27;;
22995;SDS011;11664;49.774;8.650;2022-10-30T06:34:19;16.58;;;14.98;;
22995;SDS011;11664;49.774;8.650;2022-10-30T06:36:45;14.40;;;13.13;;
22995;SDS011;11664;49.774;8.650;2022-10-30T06:39:12;8.93;;;8.15;;
22995;SDS011;11664;49.774;8.650;2022-10-30T06:41:38;7.95;;;6.88;;
22995;SDS011;11664;49.774;8.650;2022-10-30T06:44:04;11.68;;;10.88;;
22995;SDS011;11664;49.774;8.650;2022-10-30T06:46:30;19.48;;;17.88;;
22995;SDS011;11664;49.774;8.650;2022-10-30T06:48:56;20.20;;;18.88;;
22995;SDS011;11664;49.774;8.650;2022-10-30T06:51:22;30.17;;;28.33;;
22995;SDS011;11664;49.774;8.650;2022-10-30T06:53:48;21.13;;;19.73;;
22995;SDS011;11664;49.774;8.650;2022-10-30T06:56:14;16.73;;;15.65;;
22995;SDS011;11664;49.774;8.650;2022-10-30T06:58:40;14.40;;;11.93;;
22995;SDS011;11664;49.774;8.650;2022-10-30T07:01:07;11.23;;;9.57;;
22995;SDS011;11664;49.774;8.650;2022-10-30T07:03:33;9.63;;;8.77;;
22995;SDS011;11664;49.774;8.650;2022-10-30T07:05:59;16.75;;;9.35;;
22995;SDS011;11664;49.774;8.650;2022-10-30T07:08:26;15.27;;;8.52;;
22995;SDS011;11664;49.774;8.650;2022-10-30T07:10:52;11.43;;;10.25;;
22995;SDS011;11664;49.774;8.650;2022-10-30T07:13:20;10.90;;;9.68;;
22995;SDS011;11664;49.774;8.650;2022-10-30T07:15:46;10.57;;;9.65;;
22995;SDS011;11664;49.774;8.650;2022-10-30T07:18:12;14.65;;;12.20;;
22995;SDS011;11664;49.774;8.650;2022-10-30T07:20:38;19.63;;;18.23;;
22995;SDS011;11664;49.774;8.650;2022-10-30T07:23:04;34.08;;;32.00;;
22995;SDS011;11664;49.774;8.650;2022-10-30T07:25:30;11.85;;;10.98;;
22995;SDS011;11664;49.774;8.650;2022-10-30T07:27:56;28.10;;;26.33;;
22995;SDS011;11664;49.774;8.650;2022-10-30T07:30:23;28.50;;;26.60;;
22995;SDS011;11664;49.774;8.650;2022-10-30T07:32:57;14.20;;;13.05;;
22995;SDS011;11664;49.774;8.650;2022-10-30T07:35:23;10.25;;;9.25;;
22995;SDS011;11664;49.774;8.650;2022-10-30T07:37:49;12.18;;;11.27;;
22995;SDS011;11664;49.774;8.650;2022-10-30T07:40:15;11.52;;;10.48;;
22995;SDS011;11664;49.774;8.650;2022-10-30T07:42:41;13.05;;;11.35;;
22995;SDS011;11664;49.774;8.650;2022-10-30T07:45:07;11.05;;;10.00;;
22995;SDS011;11664;49.774;8.650;2022-10-30T07:47:37;16.55;;;15.07;;
22995;SDS011;11664;49.774;8.650;2022-10-30T07:50:03;12.98;;;11.80;;
22995;SDS011;11664;49.774;8.650;2022-10-30T07:52:30;14.20;;;13.23;;
22995;SDS011;11664;49.774;8.650;2022-10-30T07:54:57;41.22;;;38.75;;
22995;SDS011;11664;49.774;8.650;2022-10-30T07:57:23;19.83;;;18.33;;
22995;SDS011;11664;49.774;8.650;2022-10-30T07:59:49;11.57;;;10.63;;
22995;SDS011;11664;49.774;8.650;2022-10-30T08:02:15;10.20;;;9.40;;
22995;SDS011;11664;49.774;8.650;2022-10-30T08:04:40;14.63;;;13.30;;
22995;SDS011;11664;49.774;8.650;2022-10-30T08:07:06;19.17;;;16.67;;
22995;SDS011;11664;49.774;8.650;2022-10-30T08:09:32;11.52;;;9.18;;
22995;SDS011;11664;49.774;8.650;2022-10-30T08:11:58;26.27;;;24.13;;
22995;SDS011;11664;49.774;8.650;2022-10-30T08:14:24;9.48;;;8.68;;
22995;SDS011;11664;49.774;8.650;2022-10-30T08:16:51;10.27;;;9.18;;
22995;SDS011;11664;49.774;8.650;2022-10-30T08:19:17;10.25;;;9.23;;
22995;SDS011;11664;49.774;8.650;2022-10-30T08:21:42;11.18;;;7.93;;
22995;SDS011;11664;49.774;8.650;2022-10-30T08:24:09;14.23;;;12.82;;
22995;SDS011;11664;49.774;8.650;2022-10-30T08:26:35;8.00;;;7.00;;
22995;SDS011;11664;49.774;8.650;2022-10-30T08:29:01;9.85;;;6.38;;
22995;SDS011;11664;49.774;8.650;2022-10-30T08:31:27;9.88;;;6.82;;
22995;SDS011;11664;49.774;8.650;2022-10-30T08:33:53;10.20;;;8.23;;
22995;SDS011;11664;49.774;8.650;2022-10-30T08:36:19;8.57;;;7.68;;
22995;SDS011;11664;49.774;8.650;2022-10-30T08:38:45;10.10;;;7.00;;
22995;SDS011;11664;49.774;8.650;2022-10-30T08:41:11;11.07;;;7.15;;
22995;SDS011;11664;49.774;8.650;2022-10-30T08:43:37;9.13;;;7.40;;
22995;SDS011;11664;49.774;8.650;2022-10-30T08:46:03;9.75;;;8.70;;
22995;SDS011;11664;49.774;8.650;2022-10-30T08:48:29;7.47;;;5.95;;
22995;SDS011;11664;49.774;8.650;2022-10-30T08:50:58;9.07;;;8.32;;
22995;SDS011;11664;49.774;8.650;2022-10-30T08:53:27;21.42;;;19.90;;
22995;SDS011;11664;49.774;8.650;2022-10-30T08:55:59;12.00;;;10.73;;
22995;SDS011;11664;49.774;8.650;2022-10-30T08:58:29;10.05;;;9.02;;
22995;SDS011;11664;49.774;8.650;2022-10-30T09:01:04;9.52;;;7.38;;
22995;SDS011;11664;49.774;8.650;2022-10-30T09:03:33;15.30;;;8.50;;
22995;SDS011;11664;49.774;8.650;2022-10-30T09:05:59;11.07;;;8.38;;
22995;SDS011;11664;49.774;8.650;2022-10-30T09:08:37;13.60;;;12.23;;
22995;SDS011;11664;49.774;8.650;2022-10-30T09:13:47;15.93;;;9.57;;
22995;SDS011;11664;49.774;8.650;2022-10-30T09:16:13;13.60;;;8.43;;
22995;SDS011;11664;49.774;8.650;2022-10-30T09:18:52;12.40;;;7.40;;
22995;SDS011;11664;49.774;8.650;2022-10-30T09:21:21;12.20;;;8.13;;
22995;SDS011;11664;49.774;8.650;2022-10-30T09:23:50;14.00;;;8.85;;
22995;SDS011;11664;49.774;8.650;2022-10-30T09:26:16;17.73;;;16.15;;
22995;SDS011;11664;49.774;8.650;2022-10-30T09:28:51;15.15;;;13.02;;
22995;SDS011;11664;49.774;8.650;2022-10-30T09:33:52;9.68;;;8.60;;
22995;SDS011;11664;49.774;8.650;2022-10-30T09:36:18;18.83;;;7.93;;
22995;SDS011;11664;49.774;8.650;2022-10-30T09:38:44;8.93;;;6.95;;
22995;SDS011;11664;49.774;8.650;2022-10-30T09:41:27;8.75;;;6.18;;
22995;SDS011;11664;49.774;8.650;2022-10-30T09:44:06;11.98;;;10.98;;
22995;SDS011;11664;49.774;8.650;2022-10-30T10:00:23;9.43;;;6.03;;
22995;SDS011;11664;49.774;8.650;2022-10-30T10:06:03;5.30;;;4.50;;
22995;SDS011;11664;49.774;8.650;2022-10-30T10:08:36;7.95;;;5.25;;
22995;SDS011;11664;49.774;8.650;2022-10-30T10:11:13;10.30;;;6.15;;
22995;SDS011;11664;49.774;8.650;2022-10-30T10:13:49;9.00;;;5.82;;
22995;SDS011;11664;49.774;8.650;2022-10-30T10:16:29;9.10;;;8.10;;
22995;SDS011;11664;49.774;8.650;2022-10-30T10:19:07;15.10;;;6.18;;
22995;SDS011;11664;49.774;8.650;2022-10-30T10:21:35;8.35;;;5.95;;
22995;SDS011;11664;49.774;8.650;2022-10-30T10:24:08;7.30;;;6.57;;
22995;SDS011;11664;49.774;8.650;2022-10-30T10:26:49;8.77;;;7.38;;
22995;SDS011;11664;49.774;8.650;2022-10-30T10:34:51;7.97;;;7.28;;
22995;SDS011;11664;49.774;8.650;2022-10-30T10:44:56;10.93;;;7.35;;
22995;SDS011;11664;49.774;8.650;2022-10-30T10:53:00;8.55;;;6.45;;
22995;SDS011;11664;49.774;8.650;2022-10-30T10:55:36;8.77;;;5.95;;
22995;SDS011;11664;49.774;8.650;2022-10-30T11:01:00;8.63;;;5.18;;
22995;SDS011;11664;49.774;8.650;2022-10-30T11:03:29;10.90;;;5.75;;
22995;SDS011;11664;49.774;8.650;2022-10-30T11:10:57;6.82;;;6.13;;
22995;SDS011;11664;49.774;8.650;2022-10-30T11:13:38;10.23;;;5.30;;
22995;SDS011;11664;49.774;8.650;2022-10-30T11:18:30;6.90;;;5.03;;
22995;SDS011;11664;49.774;8.650;2022-10-30T11:21:04;6.70;;;5.45;;
22995;SDS011;11664;49.774;8.650;2022-10-30T11:37:37;6.35;;;5.78;;
22995;SDS011;11664;49.774;8.650;2022-10-30T11:43:15;4.97;;;4.60;;
22995;SDS011;11664;49.774;8.650;2022-10-30T11:45:42;6.78;;;5.15;;
22995;SDS011;11664;49.774;8.650;2022-10-30T11:50:58;6.57;;;5.72;;
22995;SDS011;11664;49.774;8.650;2022-10-30T11:53:26;10.88;;;5.43;;
22995;SDS011;11664;49.774;8.650;2022-10-30T11:55:55;5.15;;;4.65;;
22995;SDS011;11664;49.774;8.650;2022-10-30T11:58:23;10.32;;;5.03;;
22995;SDS011;11664;49.774;8.650;2022-10-30T12:01:02;7.20;;;5.63;;
22995;SDS011;11664;49.774;8.650;2022-10-30T12:03:32;7.88;;;5.93;;
22995;SDS011;11664;49.774;8.650;2022-10-30T12:08:59;6.95;;;6.28;;
22995;SDS011;11664;49.774;8.650;2022-10-30T12:11:32;12.32;;;11.30;;
22995;SDS011;11664;49.774;8.650;2022-10-30T12:13:59;16.60;;;15.35;;
22995;SDS011;11664;49.774;8.650;2022-10-30T12:16:25;15.63;;;14.05;;
22995;SDS011;11664;49.774;8.650;2022-10-30T12:18:59;12.55;;;9.70;;
22995;SDS011;11664;49.774;8.650;2022-10-30T12:21:26;10.15;;;9.35;;
22995;SDS011;11664;49.774;8.650;2022-10-30T12:23:56;9.45;;;8.70;;
22995;SDS011;11664;49.774;8.650;2022-10-30T12:26:24;6.43;;;4.95;;
22995;SDS011;11664;49.774;8.650;2022-10-30T12:28:58;8.38;;;4.03;;
22995;SDS011;11664;49.774;8.650;2022-10-30T12:31:25;5.90;;;4.30;;
22995;SDS011;11664;49.774;8.650;2022-10-30T12:36:35;5.55;;;4.28;;
22995;SDS011;11664;49.774;8.650;2022-10-30T12:41:55;6.50;;;4.22;;
22995;SDS011;11664;49.774;8.650;2022-10-30T12:49:40;3.92;;;3.65;;
22995;SDS011;11664;49.774;8.650;2022-10-30T12:52:09;4.78;;;4.38;;
22995;SDS011;11664;49.774;8.650;2022-10-30T12:57:24;9.48;;;4.57;;
22995;SDS011;11664;49.774;8.650;2022-10-30T13:00:03;5.53;;;5.13;;
22995;SDS011;11664;49.774;8.650;2022-10-30T13:02:35;6.45;;;4.70;;
22995;SDS011;11664;49.774;8.650;2022-10-30T13:05:24;5.65;;;5.25;;
22995;SDS011;11664;49.774;8.650;2022-10-30T13:10:33;6.10;;;5.70;;
22995;SDS011;11664;49.774;8.650;2022-10-30T13:13:14;7.47;;;6.30;;
22995;SDS011;11664;49.774;8.650;2022-10-30T13:15:43;5.13;;;4.72;;
22995;SDS011;11664;49.774;8.650;2022-10-30T13:18:19;4.43;;;4.07;;
22995;SDS011;11664;49.774;8.650;2022-10-30T13:23:23;4.05;;;3.75;;
22995;SDS011;11664;49.774;8.650;2022-10-30T13:25:55;5.07;;;4.13;;
22995;SDS011;11664;49.774;8.650;2022-10-30T13:28:58;4.88;;;4.47;;
22995;SDS011;11664;49.774;8.650;2022-10-30T13:31:22;4.97;;;3.90;;
22995;SDS011;11664;49.774;8.650;2022-10-30T13:34:04;8.68;;;5.00;;
22995;SDS011;11664;49.774;8.650;2022-10-30T13:39:38;5.35;;;4.45;;
22995;SDS011;11664;49.774;8.650;2022-10-30T13:42:18;4.50;;;4.00;;
22995;SDS011;11664;49.774;8.650;2022-10-30T13:44:51;7.25;;;4.57;;
22995;SDS011;11664;49.774;8.650;2022-10-30T13:50:03;4.53;;;4.13;;
22995;SDS011;11664;49.774;8.650;2022-10-30T13:52:30;4.25;;;3.92;;
22995;SDS011;11664;49.774;8.650;2022-10-30T13:55:02;4.63;;;4.22;;
22995;SDS011;11664;49.774;8.650;2022-10-30T14:05:15;4.22;;;3.47;;
22995;SDS011;11664;49.774;8.650;2022-10-30T14:07:46;4.07;;;3.75;;
22995;SDS011;11664;49.774;8.650;2022-10-30T14:10:21;4.07;;;3.67;;
22995;SDS011;11664;49.774;8.650;2022-10-30T14:20:33;5.88;;;4.30;;
22995;SDS011;11664;49.774;8.650;2022-10-30T14:25:32;6.45;;;4.00;;
22995;SDS011;11664;49.774;8.650;2022-10-30T14:27:58;3.88;;;3.47;;
22995;SDS011;11664;49.774;8.650;2022-10-30T14:30:24;6.32;;;5.00;;
22995;SDS011;11664;49.774;8.650;2022-10-30T14:32:51;6.63;;;4.32;;
22995;SDS011;11664;49.774;8.650;2022-10-30T14:35:28;5.53;;;5.13;;
22995;SDS011;11664;49.774;8.650;2022-10-30T14:38:13;6.25;;;4.22;;
22995;SDS011;11664;49.774;8.650;2022-10-30T14:43:35;4.32;;;3.88;;
22995;SDS011;11664;49.774;8.650;2022-10-30T14:51:33;6.97;;;4.72;;
22995;SDS011;11664;49.774;8.650;2022-10-30T14:54:21;9.02;;;8.25;;
22995;SDS011;11664;49.774;8.650;2022-10-30T14:56:50;9.13;;;7.40;;
22995;SDS011;11664;49.774;8.650;2022-10-30T15:09:26;5.63;;;5.13;;
22995;SDS011;11664;49.774;8.650;2022-10-30T15:11:58;5.47;;;4.20;;
22995;SDS011;11664;49.774;8.650;2022-10-30T15:14:28;4.30;;;3.90;;
22995;SDS011;11664;49.774;8.650;2022-10-30T15:16:55;5.07;;;4.32;;
22995;SDS011;11664;49.774;8.650;2022-10-30T15:19:21;4.70;;;4.28;;
22995;SDS011;11664;49.774;8.650;2022-10-30T15:21:50;7.43;;;6.93;;
22995;SDS011;11664;49.774;8.650;2022-10-30T15:24:17;8.25;;;7.65;;
22995;SDS011;11664;49.774;8.650;2022-10-30T15:26:47;12.88;;;11.88;;
22995;SDS011;11664;49.774;8.650;2022-10-30T15:29:17;10.38;;;7.15;;
22995;SDS011;11664;49.774;8.650;2022-10-30T15:31:44;4.28;;;3.88;;
22995;SDS011;11664;49.774;8.650;2022-10-30T15:34:22;5.78;;;4.15;;
22995;SDS011;11664;49.774;8.650;2022-10-30T15:36:48;5.88;;;5.40;;
22995;SDS011;11664;49.774;8.650;2022-10-30T15:39:15;4.78;;;4.35;;
22995;SDS011;11664;49.774;8.650;2022-10-30T15:41:42;9.95;;;7.55;;
22995;SDS011;11664;49.774;8.650;2022-10-30T15:44:10;9.60;;;6.65;;
22995;SDS011;11664;49.774;8.650;2022-10-30T15:46:37;11.73;;;8.20;;
22995;SDS011;11664;49.774;8.650;2022-10-30T15:49:03;17.98;;;7.97;;
22995;SDS011;11664;49.774;8.650;2022-10-30T15:51:29;15.88;;;7.55;;
22995;SDS011;11664;49.774;8.650;2022-10-30T15:53:57;10.43;;;6.60;;
22995;SDS011;11664;49.774;8.650;2022-10-30T15:56:27;12.27;;;7.13;;
22995;SDS011;11664;49.774;8.650;2022-10-30T15:58:58;13.90;;;8.43;;
22995;SDS011;11664;49.774;8.650;2022-10-30T16:01:25;29.52;;;13.98;;
22995;SDS011;11664;49.774;8.650;2022-10-30T16:03:52;42.85;;;16.73;;
22995;SDS011;11664;49.774;8.650;2022-10-30T16:06:19;35.97;;;16.20;;
22995;SDS011;11664;49.774;8.650;2022-10-30T16:08:46;27.73;;;15.38;;
22995;SDS011;11664;49.774;8.650;2022-10-30T16:11:13;21.67;;;10.98;;
22995;SDS011;11664;49.774;8.650;2022-10-30T16:13:40;15.30;;;8.82;;
22995;SDS011;11664;49.774;8.650;2022-10-30T16:16:09;12.05;;;6.10;;
22995;SDS011;11664;49.774;8.650;2022-10-30T16:18:36;5.97;;;5.25;;
22995;SDS011;11664;49.774;8.650;2022-10-30T16:21:06;9.48;;;6.43;;
22995;SDS011;11664;49.774;8.650;2022-10-30T16:23:40;10.40;;;7.38;;
22995;SDS011;11664;49.774;8.650;2022-10-30T16:26:11;6.57;;;4.68;;
22995;SDS011;11664;49.774;8.650;2022-10-30T16:28:46;8.45;;;5.25;;
22995;SDS011;11664;49.774;8.650;2022-10-30T16:31:12;5.50;;;4.88;;
22995;SDS011;11664;49.774;8.650;2022-10-30T16:33:40;7.60;;;7.03;;
22995;SDS011;11664;49.774;8.650;2022-10-30T16:36:08;7.75;;;4.63;;
22995;SDS011;11664;49.774;8.650;2022-10-30T16:38:38;4.63;;;3.75;;
22995;SDS011;11664;49.774;8.650;2022-10-30T16:41:05;9.48;;;3.70;;
22995;SDS011;11664;49.774;8.650;2022-10-30T16:43:31;4.68;;;3.63;;
22995;SDS011;11664;49.774;8.650;2022-10-30T16:48:53;5.20;;;4.72;;
22995;SDS011;11664;49.774;8.650;2022-10-30T16:51:24;3.28;;;2.92;;
22995;SDS011;11664;49.774;8.650;2022-10-30T16:53:50;4.70;;;4.30;;
22995;SDS011;11664;49.774;8.650;2022-10-30T16:56:23;3.85;;;3.53;;
22995;SDS011;11664;49.774;8.650;2022-10-30T16:58:51;4.80;;;4.50;;
22995;SDS011;11664;49.774;8.650;2022-10-30T17:01:17;5.55;;;5.10;;
22995;SDS011;11664;49.774;8.650;2022-10-30T17:03:48;4.75;;;4.35;;
22995;SDS011;11664;49.774;8.650;2022-10-30T17:06:25;4.63;;;4.22;;
22995;SDS011;11664;49.774;8.650;2022-10-30T17:08:52;5.38;;;4.35;;
22995;SDS011;11664;49.774;8.650;2022-10-30T17:11:19;3.85;;;3.55;;
22995;SDS011;11664;49.774;8.650;2022-10-30T17:13:58;5.38;;;4.93;;
22995;SDS011;11664;49.774;8.650;2022-10-30T17:16:29;4.88;;;4.57;;